sensor_id;sensor_type;location;lat;lon;timestamp;P1;durP1;ratioP1;P2;durP2;ratioP2
3407;SDS011;1717;50.240;8.406;2023-08-30T00:01:36;3.07;;;2.80;;
3407;SDS011;1717;50.240;8.406;2023-08-30T00:04:03;2.60;;;2.10;;
3407;SDS011;1717;50.240;8.406;2023-08-30T00:06:30;3.00;;;2.70;;
3407;SDS011;1717;50.240;8.406;2023-08-30T00:08:57;3.03;;;2.10;;
3407;SDS011;1717;50.240;8.406;2023-08-30T00:11:24;2.73;;;2.53;;
3407;SDS011;1717;50.240;8.406;2023-08-30T00:13:52;2.90;;;2.70;;
3407;SDS011;1717;50.240;8.406;2023-08-30T00:16:19;2.63;;;2.43;;
3407;SDS011;1717;50.240;8.406;2023-08-30T00:18:46;2.97;;;2.70;;
3407;SDS011;1717;50.240;8.406;2023-08-30T00:21:13;3.50;;;2.57;;
3407;SDS011;1717;50.240;8.406;2023-08-30T00:23:41;2.87;;;2.53;;
3407;SDS011;1717;50.240;8.406;2023-08-30T00:26:08;3.00;;;2.80;;
3407;SDS011;1717;50.240;8.406;2023-08-30T00:28:35;2.63;;;2.43;;
3407;SDS011;1717;50.240;8.406;2023-08-30T00:31:03;2.90;;;2.43;;
3407;SDS011;1717;50.240;8.406;2023-08-30T00:33:30;2.70;;;2.50;;
3407;SDS011;1717;50.240;8.406;2023-08-30T00:35:57;2.90;;;2.70;;
3407;SDS011;1717;50.240;8.406;2023-08-30T00:38:25;3.67;;;2.80;;
3407;SDS011;1717;50.240;8.406;2023-08-30T00:40:52;2.40;;;2.20;;
3407;SDS011;1717;50.240;8.406;2023-08-30T00:43:19;2.50;;;2.30;;
3407;SDS011;1717;50.240;8.406;2023-08-30T00:45:46;5.13;;;2.70;;
3407;SDS011;1717;50.240;8.406;2023-08-30T00:48:15;2.50;;;2.40;;
3407;SDS011;1717;50.240;8.406;2023-08-30T00:50:43;3.33;;;2.33;;
3407;SDS011;1717;50.240;8.406;2023-08-30T00:53:10;3.90;;;3.20;;
3407;SDS011;1717;50.240;8.406;2023-08-30T00:55:37;4.10;;;3.70;;
3407;SDS011;1717;50.240;8.406;2023-08-30T00:58:07;2.77;;;2.57;;
3407;SDS011;1717;50.240;8.406;2023-08-30T01:00:35;3.70;;;3.40;;
3407;SDS011;1717;50.240;8.406;2023-08-30T01:03:03;2.97;;;2.73;;
3407;SDS011;1717;50.240;8.406;2023-08-30T01:05:33;2.87;;;2.57;;
3407;SDS011;1717;50.240;8.406;2023-08-30T01:08:00;4.90;;;2.43;;
3407;SDS011;1717;50.240;8.406;2023-08-30T01:13:20;3.17;;;2.97;;
3407;SDS011;1717;50.240;8.406;2023-08-30T01:15:47;2.83;;;2.53;;
3407;SDS011;1717;50.240;8.406;2023-08-30T01:18:16;3.10;;;2.90;;
3407;SDS011;1717;50.240;8.406;2023-08-30T01:20:46;3.10;;;2.90;;
3407;SDS011;1717;50.240;8.406;2023-08-30T01:23:17;2.97;;;2.70;;
3407;SDS011;1717;50.240;8.406;2023-08-30T01:25:53;2.83;;;2.63;;
3407;SDS011;1717;50.240;8.406;2023-08-30T01:28:30;3.07;;;2.77;;
3407;SDS011;1717;50.240;8.406;2023-08-30T01:30:59;2.97;;;2.77;;
3407;SDS011;1717;50.240;8.406;2023-08-30T01:33:26;3.20;;;3.00;;
3407;SDS011;1717;50.240;8.406;2023-08-30T01:35:54;3.10;;;2.90;;
3407;SDS011;1717;50.240;8.406;2023-08-30T01:38:23;3.00;;;2.80;;
3407;SDS011;1717;50.240;8.406;2023-08-30T01:40:51;2.90;;;2.70;;
3407;SDS011;1717;50.240;8.406;2023-08-30T01:43:19;2.50;;;2.40;;
3407;SDS011;1717;50.240;8.406;2023-08-30T01:45:49;3.37;;;2.93;;
3407;SDS011;1717;50.240;8.406;2023-08-30T01:48:16;3.30;;;3.00;;
3407;SDS011;1717;50.240;8.406;2023-08-30T01:50:44;3.20;;;2.90;;
3407;SDS011;1717;50.240;8.406;2023-08-30T01:53:11;3.27;;;3.07;;
3407;SDS011;1717;50.240;8.406;2023-08-30T01:55:39;2.60;;;2.40;;
3407;SDS011;1717;50.240;8.406;2023-08-30T01:58:07;3.93;;;3.10;;
3407;SDS011;1717;50.240;8.406;2023-08-30T02:00:35;3.80;;;3.40;;
3407;SDS011;1717;50.240;8.406;2023-08-30T02:03:08;4.27;;;2.80;;
3407;SDS011;1717;50.240;8.406;2023-08-30T02:05:36;5.57;;;2.80;;
3407;SDS011;1717;50.240;8.406;2023-08-30T02:08:09;3.43;;;3.00;;
3407;SDS011;1717;50.240;8.406;2023-08-30T02:10:43;3.80;;;3.60;;
3407;SDS011;1717;50.240;8.406;2023-08-30T02:13:14;3.30;;;3.00;;
3407;SDS011;1717;50.240;8.406;2023-08-30T02:15:44;3.07;;;2.77;;
3407;SDS011;1717;50.240;8.406;2023-08-30T02:18:14;3.30;;;3.00;;
3407;SDS011;1717;50.240;8.406;2023-08-30T02:20:41;3.43;;;3.23;;
3407;SDS011;1717;50.240;8.406;2023-08-30T02:23:09;3.03;;;2.83;;
3407;SDS011;1717;50.240;8.406;2023-08-30T02:25:36;4.57;;;3.23;;
3407;SDS011;1717;50.240;8.406;2023-08-30T02:28:03;3.43;;;3.10;;
3407;SDS011;1717;50.240;8.406;2023-08-30T02:30:30;2.80;;;2.60;;
3407;SDS011;1717;50.240;8.406;2023-08-30T02:32:57;2.93;;;2.73;;
3407;SDS011;1717;50.240;8.406;2023-08-30T02:35:25;3.17;;;2.83;;
3407;SDS011;1717;50.240;8.406;2023-08-30T02:37:52;3.90;;;3.60;;
3407;SDS011;1717;50.240;8.406;2023-08-30T02:40:18;3.10;;;2.87;;
3407;SDS011;1717;50.240;8.406;2023-08-30T02:42:45;3.53;;;3.23;;
3407;SDS011;1717;50.240;8.406;2023-08-30T02:45:12;3.57;;;3.10;;
3407;SDS011;1717;50.240;8.406;2023-08-30T02:47:39;2.63;;;2.53;;
3407;SDS011;1717;50.240;8.406;2023-08-30T02:50:06;5.13;;;3.47;;
3407;SDS011;1717;50.240;8.406;2023-08-30T02:52:34;3.03;;;2.83;;
3407;SDS011;1717;50.240;8.406;2023-08-30T02:55:01;3.87;;;3.57;;
3407;SDS011;1717;50.240;8.406;2023-08-30T02:57:28;4.63;;;3.00;;
3407;SDS011;1717;50.240;8.406;2023-08-30T02:59:55;4.53;;;3.53;;
3407;SDS011;1717;50.240;8.406;2023-08-30T03:02:22;3.73;;;3.20;;
3407;SDS011;1717;50.240;8.406;2023-08-30T03:04:49;3.70;;;3.37;;
3407;SDS011;1717;50.240;8.406;2023-08-30T03:07:15;4.17;;;3.77;;
3407;SDS011;1717;50.240;8.406;2023-08-30T03:09:43;3.50;;;3.20;;
3407;SDS011;1717;50.240;8.406;2023-08-30T03:12:10;3.57;;;3.27;;
3407;SDS011;1717;50.240;8.406;2023-08-30T03:14:37;3.33;;;2.87;;
3407;SDS011;1717;50.240;8.406;2023-08-30T03:17:04;5.83;;;3.27;;
3407;SDS011;1717;50.240;8.406;2023-08-30T03:19:30;3.40;;;3.20;;
3407;SDS011;1717;50.240;8.406;2023-08-30T03:21:57;3.87;;;3.57;;
3407;SDS011;1717;50.240;8.406;2023-08-30T03:24:25;3.30;;;3.10;;
3407;SDS011;1717;50.240;8.406;2023-08-30T03:26:53;4.03;;;3.73;;
3407;SDS011;1717;50.240;8.406;2023-08-30T03:29:20;3.80;;;3.40;;
3407;SDS011;1717;50.240;8.406;2023-08-30T03:31:47;3.40;;;3.07;;
3407;SDS011;1717;50.240;8.406;2023-08-30T03:34:13;4.20;;;3.80;;
3407;SDS011;1717;50.240;8.406;2023-08-30T03:36:40;3.40;;;3.10;;
3407;SDS011;1717;50.240;8.406;2023-08-30T03:39:09;5.50;;;4.00;;
3407;SDS011;1717;50.240;8.406;2023-08-30T03:41:35;3.03;;;2.83;;
3407;SDS011;1717;50.240;8.406;2023-08-30T03:44:04;3.67;;;3.37;;
3407;SDS011;1717;50.240;8.406;2023-08-30T03:46:31;7.13;;;3.70;;
3407;SDS011;1717;50.240;8.406;2023-08-30T03:48:58;4.33;;;4.03;;
3407;SDS011;1717;50.240;8.406;2023-08-30T03:51:25;3.97;;;3.57;;
3407;SDS011;1717;50.240;8.406;2023-08-30T03:53:52;6.40;;;3.47;;
3407;SDS011;1717;50.240;8.406;2023-08-30T03:56:21;4.60;;;3.83;;
3407;SDS011;1717;50.240;8.406;2023-08-30T03:58:48;4.33;;;3.93;;
3407;SDS011;1717;50.240;8.406;2023-08-30T04:01:16;3.67;;;3.37;;
3407;SDS011;1717;50.240;8.406;2023-08-30T04:03:43;3.67;;;3.40;;
3407;SDS011;1717;50.240;8.406;2023-08-30T04:06:09;4.70;;;3.40;;
3407;SDS011;1717;50.240;8.406;2023-08-30T04:08:36;4.20;;;3.77;;
3407;SDS011;1717;50.240;8.406;2023-08-30T04:11:03;4.23;;;3.93;;
3407;SDS011;1717;50.240;8.406;2023-08-30T04:13:30;4.83;;;4.43;;
3407;SDS011;1717;50.240;8.406;2023-08-30T04:15:56;5.40;;;4.30;;
3407;SDS011;1717;50.240;8.406;2023-08-30T04:18:25;4.50;;;4.20;;
3407;SDS011;1717;50.240;8.406;2023-08-30T04:20:52;3.80;;;3.47;;
3407;SDS011;1717;50.240;8.406;2023-08-30T04:23:19;4.40;;;3.87;;
3407;SDS011;1717;50.240;8.406;2023-08-30T04:25:46;4.07;;;3.77;;
3407;SDS011;1717;50.240;8.406;2023-08-30T04:28:13;4.70;;;4.40;;
3407;SDS011;1717;50.240;8.406;2023-08-30T04:30:39;6.17;;;4.50;;
3407;SDS011;1717;50.240;8.406;2023-08-30T04:33:06;4.90;;;4.50;;
3407;SDS011;1717;50.240;8.406;2023-08-30T04:35:34;4.40;;;3.97;;
3407;SDS011;1717;50.240;8.406;2023-08-30T04:38:01;5.50;;;4.33;;
3407;SDS011;1717;50.240;8.406;2023-08-30T04:40:29;4.60;;;4.20;;
3407;SDS011;1717;50.240;8.406;2023-08-30T04:42:56;5.03;;;4.63;;
3407;SDS011;1717;50.240;8.406;2023-08-30T04:45:23;8.63;;;5.13;;
3407;SDS011;1717;50.240;8.406;2023-08-30T04:47:50;4.60;;;4.20;;
3407;SDS011;1717;50.240;8.406;2023-08-30T04:50:18;5.30;;;4.80;;
3407;SDS011;1717;50.240;8.406;2023-08-30T04:52:46;5.73;;;5.13;;
3407;SDS011;1717;50.240;8.406;2023-08-30T04:55:12;5.77;;;5.13;;
3407;SDS011;1717;50.240;8.406;2023-08-30T04:57:39;5.03;;;4.63;;
3407;SDS011;1717;50.240;8.406;2023-08-30T05:00:10;5.40;;;4.90;;
3407;SDS011;1717;50.240;8.406;2023-08-30T05:02:37;5.20;;;4.70;;
3407;SDS011;1717;50.240;8.406;2023-08-30T05:05:04;6.50;;;5.80;;
3407;SDS011;1717;50.240;8.406;2023-08-30T05:07:32;5.30;;;4.80;;
3407;SDS011;1717;50.240;8.406;2023-08-30T05:10:00;4.70;;;4.33;;
3407;SDS011;1717;50.240;8.406;2023-08-30T05:12:28;6.00;;;5.50;;
3407;SDS011;1717;50.240;8.406;2023-08-30T05:14:54;6.40;;;5.83;;
3407;SDS011;1717;50.240;8.406;2023-08-30T05:17:21;7.30;;;6.27;;
3407;SDS011;1717;50.240;8.406;2023-08-30T05:19:48;6.50;;;5.90;;
3407;SDS011;1717;50.240;8.406;2023-08-30T05:22:15;9.00;;;6.93;;
3407;SDS011;1717;50.240;8.406;2023-08-30T05:24:42;6.50;;;5.90;;
3407;SDS011;1717;50.240;8.406;2023-08-30T05:27:10;7.13;;;6.30;;
3407;SDS011;1717;50.240;8.406;2023-08-30T05:29:38;7.00;;;6.37;;
3407;SDS011;1717;50.240;8.406;2023-08-30T05:32:05;6.80;;;6.20;;
3407;SDS011;1717;50.240;8.406;2023-08-30T05:34:32;7.67;;;6.97;;
3407;SDS011;1717;50.240;8.406;2023-08-30T05:37:00;7.17;;;6.57;;
3407;SDS011;1717;50.240;8.406;2023-08-30T05:39:27;7.20;;;6.60;;
3407;SDS011;1717;50.240;8.406;2023-08-30T05:41:54;7.33;;;6.57;;
3407;SDS011;1717;50.240;8.406;2023-08-30T05:44:22;8.03;;;7.00;;
3407;SDS011;1717;50.240;8.406;2023-08-30T05:46:49;7.27;;;6.57;;
3407;SDS011;1717;50.240;8.406;2023-08-30T05:49:16;7.03;;;6.33;;
3407;SDS011;1717;50.240;8.406;2023-08-30T05:51:43;7.70;;;7.00;;
3407;SDS011;1717;50.240;8.406;2023-08-30T05:54:09;7.90;;;7.10;;
3407;SDS011;1717;50.240;8.406;2023-08-30T05:56:36;6.90;;;6.30;;
3407;SDS011;1717;50.240;8.406;2023-08-30T05:59:03;7.50;;;6.90;;
3407;SDS011;1717;50.240;8.406;2023-08-30T06:01:30;8.60;;;7.80;;
3407;SDS011;1717;50.240;8.406;2023-08-30T06:03:57;7.17;;;6.40;;
3407;SDS011;1717;50.240;8.406;2023-08-30T06:06:24;7.40;;;6.67;;
3407;SDS011;1717;50.240;8.406;2023-08-30T06:08:52;8.80;;;7.90;;
3407;SDS011;1717;50.240;8.406;2023-08-30T06:11:19;8.00;;;7.03;;
3407;SDS011;1717;50.240;8.406;2023-08-30T06:13:46;6.97;;;6.30;;
3407;SDS011;1717;50.240;8.406;2023-08-30T06:16:12;8.20;;;7.10;;
3407;SDS011;1717;50.240;8.406;2023-08-30T06:18:40;7.80;;;6.80;;
3407;SDS011;1717;50.240;8.406;2023-08-30T06:21:07;8.80;;;7.77;;
3407;SDS011;1717;50.240;8.406;2023-08-30T06:23:38;7.10;;;6.40;;
3407;SDS011;1717;50.240;8.406;2023-08-30T06:26:05;8.77;;;7.20;;
3407;SDS011;1717;50.240;8.406;2023-08-30T06:28:32;9.40;;;7.53;;
3407;SDS011;1717;50.240;8.406;2023-08-30T06:30:58;12.60;;;6.57;;
3407;SDS011;1717;50.240;8.406;2023-08-30T06:33:25;8.27;;;7.47;;
3407;SDS011;1717;50.240;8.406;2023-08-30T06:35:53;9.40;;;7.97;;
3407;SDS011;1717;50.240;8.406;2023-08-30T06:38:21;8.57;;;7.70;;
3407;SDS011;1717;50.240;8.406;2023-08-30T06:40:48;8.77;;;7.60;;
3407;SDS011;1717;50.240;8.406;2023-08-30T06:43:15;7.33;;;6.63;;
3407;SDS011;1717;50.240;8.406;2023-08-30T06:45:43;8.40;;;7.47;;
3407;SDS011;1717;50.240;8.406;2023-08-30T06:48:11;8.30;;;7.50;;
3407;SDS011;1717;50.240;8.406;2023-08-30T06:50:38;7.53;;;6.83;;
3407;SDS011;1717;50.240;8.406;2023-08-30T06:53:06;9.00;;;6.83;;
3407;SDS011;1717;50.240;8.406;2023-08-30T06:55:34;8.50;;;7.30;;
3407;SDS011;1717;50.240;8.406;2023-08-30T06:58:02;8.50;;;7.70;;
3407;SDS011;1717;50.240;8.406;2023-08-30T07:00:29;8.03;;;7.23;;
3407;SDS011;1717;50.240;8.406;2023-08-30T07:02:56;9.27;;;7.50;;
3407;SDS011;1717;50.240;8.406;2023-08-30T07:05:23;9.83;;;8.03;;
3407;SDS011;1717;50.240;8.406;2023-08-30T07:07:50;10.33;;;8.30;;
3407;SDS011;1717;50.240;8.406;2023-08-30T07:10:18;12.20;;;8.70;;
3407;SDS011;1717;50.240;8.406;2023-08-30T07:12:45;9.80;;;8.60;;
3407;SDS011;1717;50.240;8.406;2023-08-30T07:15:13;9.60;;;8.40;;
3407;SDS011;1717;50.240;8.406;2023-08-30T07:17:42;10.37;;;8.87;;
3407;SDS011;1717;50.240;8.406;2023-08-30T07:20:09;10.43;;;9.33;;
3407;SDS011;1717;50.240;8.406;2023-08-30T07:22:36;10.73;;;8.80;;
3407;SDS011;1717;50.240;8.406;2023-08-30T07:25:03;10.57;;;9.47;;
3407;SDS011;1717;50.240;8.406;2023-08-30T07:27:32;9.73;;;8.20;;
3407;SDS011;1717;50.240;8.406;2023-08-30T07:29:59;12.30;;;9.70;;
3407;SDS011;1717;50.240;8.406;2023-08-30T07:32:26;11.27;;;9.23;;
3407;SDS011;1717;50.240;8.406;2023-08-30T07:34:53;10.87;;;8.17;;
3407;SDS011;1717;50.240;8.406;2023-08-30T07:37:20;12.70;;;10.30;;
3407;SDS011;1717;50.240;8.406;2023-08-30T07:39:47;9.97;;;8.60;;
3407;SDS011;1717;50.240;8.406;2023-08-30T07:42:14;9.90;;;7.80;;
3407;SDS011;1717;50.240;8.406;2023-08-30T07:44:42;9.03;;;8.13;;
3407;SDS011;1717;50.240;8.406;2023-08-30T07:47:09;10.07;;;8.30;;
3407;SDS011;1717;50.240;8.406;2023-08-30T07:49:36;11.37;;;9.17;;
3407;SDS011;1717;50.240;8.406;2023-08-30T07:52:03;9.67;;;8.60;;
3407;SDS011;1717;50.240;8.406;2023-08-30T07:54:30;9.40;;;7.67;;
3407;SDS011;1717;50.240;8.406;2023-08-30T07:56:57;10.10;;;9.00;;
3407;SDS011;1717;50.240;8.406;2023-08-30T07:59:24;10.80;;;8.40;;
3407;SDS011;1717;50.240;8.406;2023-08-30T08:01:52;9.93;;;8.03;;
3407;SDS011;1717;50.240;8.406;2023-08-30T08:04:19;8.70;;;7.80;;
3407;SDS011;1717;50.240;8.406;2023-08-30T08:06:46;9.33;;;7.60;;
3407;SDS011;1717;50.240;8.406;2023-08-30T08:09:13;8.60;;;7.70;;
3407;SDS011;1717;50.240;8.406;2023-08-30T08:11:40;10.13;;;8.07;;
3407;SDS011;1717;50.240;8.406;2023-08-30T08:14:08;8.33;;;7.40;;
3407;SDS011;1717;50.240;8.406;2023-08-30T08:16:36;7.93;;;7.10;;
3407;SDS011;1717;50.240;8.406;2023-08-30T08:19:04;8.40;;;7.53;;
3407;SDS011;1717;50.240;8.406;2023-08-30T08:21:31;11.13;;;7.87;;
3407;SDS011;1717;50.240;8.406;2023-08-30T08:23:58;8.80;;;7.90;;
3407;SDS011;1717;50.240;8.406;2023-08-30T08:26:24;8.90;;;8.07;;
3407;SDS011;1717;50.240;8.406;2023-08-30T08:28:51;10.20;;;7.83;;
3407;SDS011;1717;50.240;8.406;2023-08-30T08:31:19;8.63;;;7.43;;
3407;SDS011;1717;50.240;8.406;2023-08-30T08:33:46;8.87;;;7.30;;
3407;SDS011;1717;50.240;8.406;2023-08-30T08:36:14;9.77;;;8.80;;
3407;SDS011;1717;50.240;8.406;2023-08-30T08:38:41;7.90;;;7.10;;
3407;SDS011;1717;50.240;8.406;2023-08-30T08:41:08;9.97;;;8.47;;
3407;SDS011;1717;50.240;8.406;2023-08-30T08:43:40;8.33;;;7.53;;
3407;SDS011;1717;50.240;8.406;2023-08-30T08:46:09;9.70;;;8.70;;
3407;SDS011;1717;50.240;8.406;2023-08-30T08:48:39;9.30;;;8.40;;
3407;SDS011;1717;50.240;8.406;2023-08-30T08:51:07;8.83;;;7.43;;
3407;SDS011;1717;50.240;8.406;2023-08-30T08:53:35;14.30;;;8.37;;
3407;SDS011;1717;50.240;8.406;2023-08-30T08:56:03;10.67;;;8.93;;
3407;SDS011;1717;50.240;8.406;2023-08-30T08:58:33;8.70;;;7.80;;
3407;SDS011;1717;50.240;8.406;2023-08-30T09:01:03;8.40;;;7.60;;
3407;SDS011;1717;50.240;8.406;2023-08-30T09:03:30;8.67;;;7.87;;
3407;SDS011;1717;50.240;8.406;2023-08-30T09:05:59;9.70;;;8.70;;
3407;SDS011;1717;50.240;8.406;2023-08-30T09:08:28;9.17;;;8.17;;
3407;SDS011;1717;50.240;8.406;2023-08-30T09:10:57;9.40;;;8.40;;
3407;SDS011;1717;50.240;8.406;2023-08-30T09:13:24;9.87;;;8.10;;
3407;SDS011;1717;50.240;8.406;2023-08-30T09:15:51;9.50;;;8.20;;
3407;SDS011;1717;50.240;8.406;2023-08-30T09:18:18;9.10;;;8.00;;
3407;SDS011;1717;50.240;8.406;2023-08-30T09:20:45;10.00;;;8.67;;
3407;SDS011;1717;50.240;8.406;2023-08-30T09:23:17;9.63;;;8.47;;
3407;SDS011;1717;50.240;8.406;2023-08-30T09:25:45;9.80;;;8.80;;
3407;SDS011;1717;50.240;8.406;2023-08-30T09:28:13;9.67;;;8.70;;
3407;SDS011;1717;50.240;8.406;2023-08-30T09:30:40;9.87;;;8.33;;
3407;SDS011;1717;50.240;8.406;2023-08-30T09:33:07;9.57;;;8.60;;
3407;SDS011;1717;50.240;8.406;2023-08-30T09:35:39;11.43;;;9.87;;
3407;SDS011;1717;50.240;8.406;2023-08-30T09:38:15;10.57;;;8.90;;
3407;SDS011;1717;50.240;8.406;2023-08-30T09:40:43;12.70;;;9.90;;
3407;SDS011;1717;50.240;8.406;2023-08-30T09:43:10;10.90;;;9.80;;
3407;SDS011;1717;50.240;8.406;2023-08-30T09:45:38;11.50;;;10.40;;
3407;SDS011;1717;50.240;8.406;2023-08-30T09:48:06;10.37;;;9.37;;
3407;SDS011;1717;50.240;8.406;2023-08-30T09:50:39;10.83;;;9.80;;
3407;SDS011;1717;50.240;8.406;2023-08-30T09:53:10;10.67;;;8.93;;
3407;SDS011;1717;50.240;8.406;2023-08-30T09:55:40;9.77;;;8.97;;
3407;SDS011;1717;50.240;8.406;2023-08-30T09:58:09;9.80;;;8.90;;
3407;SDS011;1717;50.240;8.406;2023-08-30T10:00:37;9.77;;;8.77;;
3407;SDS011;1717;50.240;8.406;2023-08-30T10:03:06;10.53;;;9.53;;
3407;SDS011;1717;50.240;8.406;2023-08-30T10:05:33;10.30;;;9.30;;
3407;SDS011;1717;50.240;8.406;2023-08-30T10:08:02;8.77;;;7.90;;
3407;SDS011;1717;50.240;8.406;2023-08-30T10:10:30;10.27;;;9.00;;
3407;SDS011;1717;50.240;8.406;2023-08-30T10:12:57;11.93;;;9.07;;
3407;SDS011;1717;50.240;8.406;2023-08-30T10:15:25;9.93;;;8.93;;
3407;SDS011;1717;50.240;8.406;2023-08-30T10:17:54;9.30;;;8.00;;
3407;SDS011;1717;50.240;8.406;2023-08-30T10:20:24;7.60;;;7.00;;
3407;SDS011;1717;50.240;8.406;2023-08-30T10:22:52;8.07;;;7.37;;
3407;SDS011;1717;50.240;8.406;2023-08-30T10:25:21;9.10;;;7.30;;
3407;SDS011;1717;50.240;8.406;2023-08-30T10:27:52;7.43;;;6.73;;
3407;SDS011;1717;50.240;8.406;2023-08-30T10:30:20;7.73;;;6.90;;
3407;SDS011;1717;50.240;8.406;2023-08-30T10:32:48;9.20;;;7.23;;
3407;SDS011;1717;50.240;8.406;2023-08-30T10:35:17;7.40;;;5.90;;
3407;SDS011;1717;50.240;8.406;2023-08-30T10:37:53;8.27;;;5.93;;
3407;SDS011;1717;50.240;8.406;2023-08-30T10:40:21;6.70;;;5.53;;
3407;SDS011;1717;50.240;8.406;2023-08-30T10:42:58;6.33;;;5.73;;
3407;SDS011;1717;50.240;8.406;2023-08-30T10:45:25;6.33;;;5.73;;
3407;SDS011;1717;50.240;8.406;2023-08-30T10:47:54;8.20;;;5.87;;
3407;SDS011;1717;50.240;8.406;2023-08-30T10:50:28;5.37;;;4.97;;
3407;SDS011;1717;50.240;8.406;2023-08-30T10:52:56;6.13;;;5.53;;
3407;SDS011;1717;50.240;8.406;2023-08-30T10:55:23;7.00;;;6.10;;
3407;SDS011;1717;50.240;8.406;2023-08-30T10:57:57;5.83;;;5.20;;
3407;SDS011;1717;50.240;8.406;2023-08-30T11:00:27;5.93;;;4.83;;
3407;SDS011;1717;50.240;8.406;2023-08-30T11:02:54;5.23;;;4.77;;
3407;SDS011;1717;50.240;8.406;2023-08-30T11:05:22;5.50;;;5.00;;
3407;SDS011;1717;50.240;8.406;2023-08-30T11:07:52;4.60;;;4.20;;
3407;SDS011;1717;50.240;8.406;2023-08-30T11:10:19;5.10;;;4.20;;
3407;SDS011;1717;50.240;8.406;2023-08-30T11:12:47;4.53;;;4.23;;
3407;SDS011;1717;50.240;8.406;2023-08-30T11:15:14;5.17;;;4.67;;
3407;SDS011;1717;50.240;8.406;2023-08-30T11:17:42;4.80;;;4.40;;
3407;SDS011;1717;50.240;8.406;2023-08-30T11:20:10;5.50;;;5.00;;
3407;SDS011;1717;50.240;8.406;2023-08-30T11:22:39;3.83;;;3.53;;
3407;SDS011;1717;50.240;8.406;2023-08-30T11:25:09;4.80;;;4.23;;
3407;SDS011;1717;50.240;8.406;2023-08-30T11:27:36;4.50;;;4.10;;
3407;SDS011;1717;50.240;8.406;2023-08-30T11:30:03;3.80;;;3.50;;
3407;SDS011;1717;50.240;8.406;2023-08-30T11:32:34;4.40;;;4.00;;
3407;SDS011;1717;50.240;8.406;2023-08-30T11:35:01;4.30;;;3.80;;
3407;SDS011;1717;50.240;8.406;2023-08-30T11:37:29;4.07;;;3.77;;
3407;SDS011;1717;50.240;8.406;2023-08-30T11:39:56;4.83;;;4.40;;
3407;SDS011;1717;50.240;8.406;2023-08-30T11:42:24;4.43;;;4.03;;
3407;SDS011;1717;50.240;8.406;2023-08-30T11:44:52;4.70;;;4.30;;
3407;SDS011;1717;50.240;8.406;2023-08-30T11:47:19;4.90;;;3.53;;
3407;SDS011;1717;50.240;8.406;2023-08-30T11:49:48;6.20;;;3.97;;
3407;SDS011;1717;50.240;8.406;2023-08-30T11:52:16;5.50;;;5.00;;
3407;SDS011;1717;50.240;8.406;2023-08-30T11:54:45;5.60;;;4.70;;
3407;SDS011;1717;50.240;8.406;2023-08-30T11:57:13;4.30;;;3.90;;
3407;SDS011;1717;50.240;8.406;2023-08-30T11:59:41;4.23;;;3.63;;
3407;SDS011;1717;50.240;8.406;2023-08-30T12:02:08;4.23;;;3.73;;
3407;SDS011;1717;50.240;8.406;2023-08-30T12:04:40;5.80;;;3.77;;
3407;SDS011;1717;50.240;8.406;2023-08-30T12:07:08;6.83;;;4.13;;
3407;SDS011;1717;50.240;8.406;2023-08-30T12:09:36;5.63;;;3.47;;
3407;SDS011;1717;50.240;8.406;2023-08-30T12:12:05;4.20;;;3.90;;
3407;SDS011;1717;50.240;8.406;2023-08-30T12:14:33;4.97;;;4.43;;
3407;SDS011;1717;50.240;8.406;2023-08-30T12:17:01;5.53;;;4.13;;
3407;SDS011;1717;50.240;8.406;2023-08-30T12:19:28;4.30;;;3.90;;
3407;SDS011;1717;50.240;8.406;2023-08-30T12:21:55;5.03;;;4.63;;
3407;SDS011;1717;50.240;8.406;2023-08-30T12:24:28;4.50;;;4.10;;
3407;SDS011;1717;50.240;8.406;2023-08-30T12:27:05;5.10;;;4.27;;
3407;SDS011;1717;50.240;8.406;2023-08-30T12:29:32;4.37;;;3.97;;
3407;SDS011;1717;50.240;8.406;2023-08-30T12:31:59;5.03;;;4.47;;
3407;SDS011;1717;50.240;8.406;2023-08-30T12:34:27;5.57;;;4.30;;
3407;SDS011;1717;50.240;8.406;2023-08-30T12:36:54;5.40;;;4.90;;
3407;SDS011;1717;50.240;8.406;2023-08-30T12:39:21;4.00;;;3.70;;
3407;SDS011;1717;50.240;8.406;2023-08-30T12:41:48;4.57;;;4.17;;
3407;SDS011;1717;50.240;8.406;2023-08-30T12:44:15;4.83;;;4.03;;
3407;SDS011;1717;50.240;8.406;2023-08-30T12:46:42;3.50;;;3.20;;
3407;SDS011;1717;50.240;8.406;2023-08-30T12:49:09;4.47;;;4.07;;
3407;SDS011;1717;50.240;8.406;2023-08-30T12:51:37;6.43;;;4.90;;
3407;SDS011;1717;50.240;8.406;2023-08-30T12:54:04;6.10;;;4.00;;
3407;SDS011;1717;50.240;8.406;2023-08-30T12:56:31;5.37;;;4.47;;
3407;SDS011;1717;50.240;8.406;2023-08-30T12:58:58;5.03;;;4.57;;
3407;SDS011;1717;50.240;8.406;2023-08-30T13:01:25;5.77;;;4.53;;
3407;SDS011;1717;50.240;8.406;2023-08-30T13:03:52;5.27;;;4.77;;
3407;SDS011;1717;50.240;8.406;2023-08-30T13:06:18;6.10;;;5.37;;
3407;SDS011;1717;50.240;8.406;2023-08-30T13:08:47;5.43;;;4.20;;
3407;SDS011;1717;50.240;8.406;2023-08-30T13:11:13;5.67;;;5.17;;
3407;SDS011;1717;50.240;8.406;2023-08-30T13:13:40;6.47;;;5.77;;
3407;SDS011;1717;50.240;8.406;2023-08-30T13:16:07;6.03;;;4.63;;
3407;SDS011;1717;50.240;8.406;2023-08-30T13:18:34;8.10;;;4.60;;
3407;SDS011;1717;50.240;8.406;2023-08-30T13:21:01;4.57;;;4.17;;
3407;SDS011;1717;50.240;8.406;2023-08-30T13:23:29;6.03;;;5.40;;
3407;SDS011;1717;50.240;8.406;2023-08-30T13:25:57;5.77;;;4.87;;
3407;SDS011;1717;50.240;8.406;2023-08-30T13:28:24;7.80;;;4.63;;
3407;SDS011;1717;50.240;8.406;2023-08-30T13:30:51;4.73;;;4.30;;
3407;SDS011;1717;50.240;8.406;2023-08-30T13:33:19;5.13;;;4.63;;
3407;SDS011;1717;50.240;8.406;2023-08-30T13:35:48;6.50;;;4.87;;
3407;SDS011;1717;50.240;8.406;2023-08-30T13:38:16;5.33;;;4.83;;
3407;SDS011;1717;50.240;8.406;2023-08-30T13:40:44;5.10;;;4.60;;
3407;SDS011;1717;50.240;8.406;2023-08-30T13:43:12;5.63;;;5.00;;
3407;SDS011;1717;50.240;8.406;2023-08-30T13:45:42;5.77;;;4.90;;
3407;SDS011;1717;50.240;8.406;2023-08-30T13:48:12;5.90;;;4.87;;
3407;SDS011;1717;50.240;8.406;2023-08-30T13:50:40;6.30;;;5.17;;
3407;SDS011;1717;50.240;8.406;2023-08-30T13:53:11;5.33;;;4.83;;
3407;SDS011;1717;50.240;8.406;2023-08-30T13:55:38;5.90;;;4.83;;
3407;SDS011;1717;50.240;8.406;2023-08-30T13:58:07;5.47;;;4.97;;
3407;SDS011;1717;50.240;8.406;2023-08-30T14:00:35;8.53;;;5.57;;
3407;SDS011;1717;50.240;8.406;2023-08-30T14:03:02;6.13;;;5.33;;
3407;SDS011;1717;50.240;8.406;2023-08-30T14:05:29;5.13;;;4.63;;
3407;SDS011;1717;50.240;8.406;2023-08-30T14:07:57;5.70;;;4.90;;
3407;SDS011;1717;50.240;8.406;2023-08-30T14:10:23;5.90;;;4.80;;
3407;SDS011;1717;50.240;8.406;2023-08-30T14:12:50;4.97;;;4.40;;
3407;SDS011;1717;50.240;8.406;2023-08-30T14:15:19;7.10;;;4.80;;
3407;SDS011;1717;50.240;8.406;2023-08-30T14:17:47;6.17;;;5.57;;
3407;SDS011;1717;50.240;8.406;2023-08-30T14:20:14;7.10;;;4.20;;
3407;SDS011;1717;50.240;8.406;2023-08-30T14:22:41;8.73;;;5.90;;
3407;SDS011;1717;50.240;8.406;2023-08-30T14:25:08;5.70;;;4.30;;
3407;SDS011;1717;50.240;8.406;2023-08-30T14:27:35;6.37;;;4.87;;
3407;SDS011;1717;50.240;8.406;2023-08-30T14:30:05;5.87;;;5.00;;
3407;SDS011;1717;50.240;8.406;2023-08-30T14:32:33;5.57;;;5.00;;
3407;SDS011;1717;50.240;8.406;2023-08-30T14:35:02;7.90;;;5.47;;
3407;SDS011;1717;50.240;8.406;2023-08-30T14:37:29;6.43;;;4.87;;
3407;SDS011;1717;50.240;8.406;2023-08-30T14:39:56;5.77;;;5.23;;
3407;SDS011;1717;50.240;8.406;2023-08-30T14:42:23;6.30;;;5.17;;
3407;SDS011;1717;50.240;8.406;2023-08-30T14:44:50;5.90;;;5.10;;
3407;SDS011;1717;50.240;8.406;2023-08-30T14:47:20;6.97;;;4.70;;
3407;SDS011;1717;50.240;8.406;2023-08-30T14:49:47;6.10;;;5.50;;
3407;SDS011;1717;50.240;8.406;2023-08-30T14:52:16;6.43;;;4.97;;
3407;SDS011;1717;50.240;8.406;2023-08-30T14:54:46;5.27;;;4.50;;
3407;SDS011;1717;50.240;8.406;2023-08-30T14:57:13;6.27;;;4.77;;
3407;SDS011;1717;50.240;8.406;2023-08-30T14:59:40;5.23;;;4.70;;
3407;SDS011;1717;50.240;8.406;2023-08-30T15:02:07;6.43;;;5.30;;
3407;SDS011;1717;50.240;8.406;2023-08-30T15:04:34;5.93;;;5.30;;
3407;SDS011;1717;50.240;8.406;2023-08-30T15:07:01;5.70;;;5.10;;
3407;SDS011;1717;50.240;8.406;2023-08-30T15:09:30;6.50;;;5.27;;
3407;SDS011;1717;50.240;8.406;2023-08-30T15:11:57;5.30;;;4.90;;
3407;SDS011;1717;50.240;8.406;2023-08-30T15:14:25;5.60;;;4.87;;
3407;SDS011;1717;50.240;8.406;2023-08-30T15:16:53;6.43;;;5.30;;
3407;SDS011;1717;50.240;8.406;2023-08-30T15:19:20;5.37;;;4.87;;
3407;SDS011;1717;50.240;8.406;2023-08-30T15:21:46;5.33;;;4.60;;